Time;durP1;ratioP1;P1;durP2;ratioP2;P2;SDS_P1;SDS_P2;PMS_P1;PMS_P2;Temp;Humidity;BMP_temperature;BMP_pressure;BME280_temperature;BME280_humidity;BME280_pressure;Samples;Min_cycle;Max_cycle;Signal;HPM_P1;HPM_P2
2022/02/11 00:00:53;;;;;;;6.93;4.07;;;;;;;7.13;90.15;98610.06;5093788;28;20238;-75
2022/02/11 00:06:20;;;;;;;5.73;3.93;;;;;;;7.14;89.48;98598.63;5093969;28;20219;-73
2022/02/11 00:08:47;;;;;;;3.77;3.10;;;;;;;7.14;89.12;98593.38;5080222;28;20212;-73
2022/02/11 00:11:15;;;;;;;4.10;3.37;;;;;;;7.15;89.32;98589.81;5093500;28;20211;-74
2022/02/11 00:13:42;;;;;;;5.23;4.07;;;;;;;7.14;89.43;98588.09;5093570;28;20683;-75
2022/02/11 00:16:10;;;;;;;4.87;3.57;;;;;;;7.14;89.29;98587.28;5093648;28;20616;-75
2022/02/11 00:18:36;;;;;;;4.23;3.40;;;;;;;7.13;88.96;98586.41;5093646;28;20588;-74
2022/02/11 00:21:03;;;;;;;5.30;3.83;;;;;;;7.13;89.51;98582.91;5093716;28;20237;-73
2022/02/11 00:23:31;;;;;;;5.13;3.50;;;;;;;7.16;89.62;98585.41;5093835;28;20211;-73
2022/02/11 00:26:00;;;;;;;6.20;3.77;;;;;;;7.13;89.18;98590.81;5093160;28;20211;-75
2022/02/11 00:31:47;;;;;;;6.83;4.40;;;;;;;7.07;89.26;98585.84;5092864;28;20268;-73
2022/02/11 00:34:15;;;;;;;5.73;4.47;;;;;;;7.02;90.40;98580.81;5078808;28;20250;-74
2022/02/11 00:36:48;;;;;;;5.97;4.80;;;;;;;7.00;90.35;98580.03;5093494;28;20219;-75
2022/02/11 00:39:37;;;;;;;4.37;3.87;;;;;;;7.00;90.17;98576.56;5093287;28;20230;-74
2022/02/11 01:04:10;;;;;;;11.27;5.77;;;;;;;6.42;93.91;98585.47;5093153;28;20218;-74
2022/02/11 01:06:38;;;;;;;7.20;5.40;;;;;;;6.34;94.79;98590.22;5093027;28;20220;-74
2022/02/11 01:09:04;;;;;;;8.83;6.10;;;;;;;6.30;95.60;98581.59;5092981;28;20215;-74
2022/02/11 01:11:36;;;;;;;7.97;6.53;;;;;;;6.25;97.16;98591.47;5092967;28;20222;-73
2022/02/11 01:14:02;;;;;;;8.40;5.90;;;;;;;6.24;97.42;98587.13;5092868;28;20246;-73
2022/02/11 01:16:37;;;;;;;9.13;6.33;;;;;;;6.23;96.64;98593.31;5092866;28;20215;-74
2022/02/11 01:19:11;;;;;;;9.77;6.03;;;;;;;6.17;95.45;98572.56;5091993;28;20238;-74
2022/02/11 01:21:46;;;;;;;7.97;5.87;;;;;;;6.22;94.57;98570.59;5092921;28;20241;-74
2022/02/11 01:24:28;;;;;;;7.43;5.60;;;;;;;6.22;93.08;98567.97;5092494;28;20671;-73
2022/02/11 01:27:14;;;;;;;9.67;5.97;;;;;;;6.27;92.02;98580.88;5090340;28;20304;-74
2022/02/11 01:30:07;;;;;;;7.10;4.77;;;;;;;6.25;91.96;98567.84;5092710;28;20560;-74
2022/02/11 01:32:45;;;;;;;7.00;4.63;;;;;;;6.23;91.50;98566.22;5092374;28;20224;-73
2022/02/11 01:35:20;;;;;;;7.07;4.37;;;;;;;6.21;89.48;98562.78;5079388;28;20343;-74
2022/02/11 01:37:56;;;;;;;7.03;4.27;;;;;;;6.17;88.54;98554.22;5092181;28;20270;-73
2022/02/11 01:51:32;;;;;;;7.00;4.60;;;;;;;5.64;91.27;98578.44;5084719;28;20700;-74
2022/02/11 01:54:07;;;;;;;6.90;4.43;;;;;;;5.60;92.29;98571.59;5090354;28;20369;-73
2022/02/11 01:56:43;;;;;;;5.93;4.43;;;;;;;5.60;91.98;98572.47;5092175;28;20268;-74
2022/02/11 01:59:48;;;;;;;6.17;4.27;;;;;;;5.64;92.97;98571.44;5091787;28;20214;-74
2022/02/11 02:02:52;;;;;;;4.70;3.77;;;;;;;5.64;92.85;98579.31;5091958;28;20226;-74
2022/02/11 02:22:53;;;;;;;6.27;4.27;;;;;;;5.30;100.00;98579.00;5110107;28;20269;-73
2022/02/11 02:25:27;;;;;;;5.20;4.33;;;;;;;5.27;100.00;98562.53;5109699;28;20689;-74
2022/02/11 02:28:15;;;;;;;6.40;4.13;;;;;;;5.25;100.00;98565.22;5108699;28;20217;-74
2022/02/11 02:58:15;;;;;;;7.30;5.50;;;;;;;4.88;100.00;98603.47;5108684;28;20245;-74
2022/02/11 03:01:08;;;;;;;6.83;5.47;;;;;;;4.91;100.00;98612.03;5109047;28;20233;-73
2022/02/11 03:14:59;;;;;;;5.13;3.73;;;;;;;4.50;100.00;98627.59;5107178;28;20592;-74
2022/02/11 03:31:29;;;;;;;4.87;4.00;;;;;;;4.47;100.00;98625.94;5108034;28;20286;-73
2022/02/11 03:34:48;;;;;;;5.67;4.40;;;;;;;4.23;100.00;98667.88;5094801;28;20579;-74
2022/02/11 03:51:30;;;;;;;3.00;2.70;;;;;;;3.44;100.00;98722.00;5082182;28;20578;-71
2022/02/11 03:57:17;;;;;;;2.13;1.93;;;;;;;3.18;100.00;98735.00;5093246;28;20223;-64
2022/02/11 04:55:01;;;;;;;7.00;5.73;;;;;;;2.31;100.00;98865.34;5093078;28;20259;-69
2022/02/11 05:00:14;;;;;;;8.97;6.27;;;;;;;2.30;100.00;98871.47;5092576;28;20229;-74
2022/02/11 05:02:41;;;;;;;7.47;5.70;;;;;;;2.28;100.00;98881.06;5093052;28;20241;-75
2022/02/11 05:05:08;;;;;;;7.73;6.30;;;;;;;2.30;100.00;98894.06;5092792;28;20219;-73
2022/02/11 05:07:35;;;;;;;8.63;6.37;;;;;;;2.27;100.00;98902.81;5092714;28;20211;-75
2022/02/11 05:10:04;;;;;;;8.40;6.20;;;;;;;2.39;100.00;98902.53;5092232;28;20211;-75
2022/02/11 05:12:31;;;;;;;9.63;6.63;;;;;;;2.32;100.00;98903.56;5092822;28;20208;-75
2022/02/11 05:14:58;;;;;;;8.27;6.33;;;;;;;2.34;100.00;98913.97;5092642;28;20228;-75
2022/02/11 05:17:24;;;;;;;7.73;5.93;;;;;;;2.30;100.00;98907.97;5092482;28;20215;-75
2022/02/11 05:19:50;;;;;;;6.80;5.53;;;;;;;2.29;100.00;98916.69;5092617;28;20241;-75
2022/02/11 05:22:17;;;;;;;7.30;5.67;;;;;;;2.21;100.00;98934.25;5092370;28;20215;-77
2022/02/11 05:24:44;;;;;;;9.77;7.07;;;;;;;2.19;100.00;98933.44;5090764;28;20686;-80
2022/02/11 05:27:12;;;;;;;9.73;6.97;;;;;;;2.20;100.00;98939.53;5092645;28;20300;-79
2022/02/11 05:29:39;;;;;;;8.80;6.73;;;;;;;2.29;100.00;98931.47;5092333;28;20218;-79
2022/02/11 05:32:06;;;;;;;7.57;6.03;;;;;;;2.25;100.00;98932.44;5091207;28;20261;-78
2022/02/11 05:34:33;;;;;;;8.67;6.90;;;;;;;2.24;100.00;98939.41;5092119;28;20240;-79
2022/02/11 05:37:00;;;;;;;10.70;7.07;;;;;;;2.29;100.00;98937.56;5092084;28;20222;-81
2022/02/11 05:39:26;;;;;;;9.03;7.03;;;;;;;2.39;100.00;98944.25;5092005;28;20700;-81
2022/02/11 05:41:53;;;;;;;7.97;6.30;;;;;;;2.40;100.00;98956.41;5092555;28;20250;-81
2022/02/11 05:44:26;;;;;;;8.13;6.30;;;;;;;2.35;100.00;98958.28;5091972;28;20211;-82
2022/02/11 05:46:55;;;;;;;7.67;5.33;;;;;;;2.37;100.00;98960.84;5092355;28;20620;-81
2022/02/11 05:49:27;;;;;;;7.23;5.30;;;;;;;2.38;100.00;98967.78;5092077;28;20223;-83
2022/02/11 05:51:55;;;;;;;6.80;5.10;;;;;;;2.41;100.00;98971.19;5090312;28;20223;-83
2022/02/11 05:54:22;;;;;;;6.53;5.83;;;;;;;2.41;100.00;98988.56;5091803;28;20216;-83
2022/02/11 05:56:48;;;;;;;7.10;5.43;;;;;;;2.40;100.00;98985.09;5092060;28;20216;-82
2022/02/11 05:59:16;;;;;;;7.13;4.83;;;;;;;2.44;100.00;99002.41;5092035;28;20232;-81
2022/02/11 06:01:44;;;;;;;6.23;4.53;;;;;;;2.45;100.00;99006.72;5091806;28;20256;-79
2022/02/11 06:04:11;;;;;;;6.40;4.30;;;;;;;2.41;100.00;99012.94;5092051;28;20218;-78
2022/02/11 06:06:37;;;;;;;8.37;4.70;;;;;;;2.41;100.00;99006.84;5092039;28;20211;-79
2022/02/11 06:09:04;;;;;;;6.17;4.70;;;;;;;2.45;100.00;99011.09;5092094;28;20213;-79
2022/02/11 06:11:30;;;;;;;8.37;5.20;;;;;;;2.47;100.00;99011.91;5091766;28;20220;-78
2022/02/11 06:13:57;;;;;;;5.63;4.93;;;;;;;2.42;100.00;99006.81;5091406;28;20216;-77
2022/02/11 06:16:23;;;;;;;5.40;4.67;;;;;;;2.30;100.00;99012.31;5091680;28;20216;-76
2022/02/11 06:18:51;;;;;;;6.40;4.70;;;;;;;2.12;100.00;99017.94;5089693;28;20243;-78
2022/02/11 06:21:18;;;;;;;5.87;4.80;;;;;;;1.99;100.00;99023.44;5091867;28;20223;-75
2022/02/11 06:23:44;;;;;;;8.03;5.27;;;;;;;1.92;100.00;99032.28;5091597;28;20237;-76
2022/02/11 06:26:11;;;;;;;8.83;5.27;;;;;;;1.83;100.00;99041.13;5091851;28;20569;-77
2022/02/11 06:28:37;;;;;;;7.70;5.67;;;;;;;1.81;100.00;99036.84;5092151;28;20212;-75
2022/02/11 06:31:04;;;;;;;7.57;5.23;;;;;;;1.75;100.00;99042.19;5091942;28;20211;-74
2022/02/11 06:33:30;;;;;;;8.20;5.40;;;;;;;1.73;100.00;99036.97;5091553;28;20212;-74
2022/02/11 06:35:59;;;;;;;6.63;5.33;;;;;;;1.74;100.00;99046.53;5091731;28;20206;-75
2022/02/11 06:38:25;;;;;;;7.70;5.57;;;;;;;1.64;100.00;99063.25;5091370;28;20242;-74
2022/02/11 06:40:52;;;;;;;8.53;5.27;;;;;;;1.55;100.00;99055.63;5091736;28;20222;-74
2022/02/11 06:43:18;;;;;;;7.10;4.90;;;;;;;1.60;100.00;99074.59;5089677;28;20842;-74
2022/02/11 06:45:45;;;;;;;7.63;5.60;;;;;;;1.47;100.00;99072.28;5091592;28;20579;-74
2022/02/11 06:48:12;;;;;;;8.80;5.70;;;;;;;1.51;100.00;99079.13;5091440;28;20221;-76
2022/02/11 06:50:39;;;;;;;7.37;5.20;;;;;;;1.53;100.00;99083.41;5091661;28;20247;-75
2022/02/11 06:53:09;;;;;;;7.73;5.60;;;;;;;1.49;100.00;99092.19;5091296;28;20680;-74
2022/02/11 06:55:36;;;;;;;8.77;5.80;;;;;;;1.46;100.00;99102.66;5091353;28;20694;-75
2022/02/11 06:58:02;;;;;;;8.53;5.47;;;;;;;1.49;100.00;99102.63;5091884;28;20229;-75
2022/02/11 07:00:29;;;;;;;7.47;5.43;;;;;;;1.48;100.00;99119.09;5091576;28;20213;-75
2022/02/11 07:02:55;;;;;;;6.87;4.93;;;;;;;1.46;100.00;99120.88;5091344;28;20244;-75
2022/02/11 07:05:23;;;;;;;9.60;5.57;;;;;;;1.45;100.00;99132.19;5093589;28;20212;-75
2022/02/11 07:07:50;;;;;;;8.37;5.67;;;;;;;1.50;100.00;99145.13;5095461;28;20315;-76
2022/02/11 07:10:18;;;;;;;8.87;6.27;;;;;;;1.56;100.00;99135.47;5093557;28;20216;-75
2022/02/11 07:12:44;;;;;;;8.43;6.17;;;;;;;1.65;100.00;99139.66;5095053;28;20211;-76
2022/02/11 07:15:11;;;;;;;8.77;6.30;;;;;;;1.78;100.00;99147.22;5094641;28;20212;-75
2022/02/11 07:17:37;;;;;;;9.60;6.17;;;;;;;1.78;100.00;99147.22;5094644;28;20240;-76
2022/02/11 07:20:05;;;;;;;9.27;5.67;;;;;;;1.70;100.00;99151.72;5094858;28;20777;-75
2022/02/11 07:22:34;;;;;;;7.57;5.90;;;;;;;1.75;100.00;99155.09;5094944;28;20238;-76
2022/02/11 07:25:01;;;;;;;8.00;6.10;;;;;;;1.85;100.00;99172.28;5094879;28;20217;-76
2022/02/11 07:27:29;;;;;;;8.17;5.83;;;;;;;1.89;100.00;99176.56;5094925;28;20215;-76
2022/02/11 07:29:55;;;;;;;7.87;5.90;;;;;;;1.90;100.00;99183.47;5094475;28;20215;-76
2022/02/11 07:32:22;;;;;;;8.10;5.70;;;;;;;1.79;100.00;99195.84;5094513;28;20219;-76
2022/02/11 07:34:48;;;;;;;7.70;5.83;;;;;;;1.80;100.00;99202.81;5094655;28;20301;-76
2022/02/11 07:37:15;;;;;;;8.43;5.97;;;;;;;1.77;100.00;99205.44;5093151;28;20228;-76
2022/02/11 07:39:41;;;;;;;6.13;5.27;;;;;;;1.75;100.00;99208.97;5094222;28;20807;-75
2022/02/11 07:42:08;;;;;;;8.00;5.63;;;;;;;1.76;100.00;99221.97;5094605;28;20211;-75
2022/02/11 07:44:35;;;;;;;7.40;5.77;;;;;;;1.77;100.00;99222.84;5094488;28;20224;-75
2022/02/11 07:47:02;;;;;;;8.57;6.10;;;;;;;1.70;100.00;99231.63;5094480;28;20216;-75
2022/02/11 07:49:28;;;;;;;9.33;6.90;;;;;;;1.68;100.00;99238.63;5094391;28;20216;-75
2022/02/11 07:51:55;;;;;;;7.70;5.53;;;;;;;1.77;100.00;99244.53;5094434;28;20220;-76
2022/02/11 07:54:22;;;;;;;7.87;5.80;;;;;;;1.79;100.00;99245.34;5093767;28;20207;-76
2022/02/11 07:56:48;;;;;;;7.37;5.90;;;;;;;1.75;100.00;99258.47;5094311;28;20215;-77
2022/02/11 07:59:15;;;;;;;7.27;5.77;;;;;;;1.81;100.00;99256.63;5094026;28;20240;-76
2022/02/11 08:01:42;;;;;;;7.97;5.73;;;;;;;1.84;100.00;99264.38;5094179;28;20213;-76
2022/02/11 08:04:09;;;;;;;9.00;5.67;;;;;;;1.85;100.00;99266.09;5092783;28;20218;-75
2022/02/11 08:06:35;;;;;;;8.10;5.90;;;;;;;1.91;100.00;99273.81;5094180;28;20228;-74
2022/02/11 08:09:02;;;;;;;8.63;5.53;;;;;;;2.05;100.00;99281.41;5094183;28;20219;-75
2022/02/11 08:11:29;;;;;;;6.73;5.43;;;;;;;1.98;100.00;99291.13;5093936;28;20295;-76
2022/02/11 08:13:55;;;;;;;9.23;5.13;;;;;;;2.05;100.00;99290.13;5093847;28;20214;-78
2022/02/11 08:16:22;;;;;;;8.53;5.17;;;;;;;2.07;100.00;99303.97;5093515;28;20212;-78
2022/02/11 08:18:49;;;;;;;7.20;5.07;;;;;;;2.07;100.00;99301.38;5093890;28;20243;-77
2022/02/11 08:21:16;;;;;;;7.73;4.67;;;;;;;2.08;100.00;99308.31;5094014;28;20211;-77
2022/02/11 08:23:43;;;;;;;8.03;4.90;;;;;;;2.13;100.00;99306.47;5093869;28;20220;-77
2022/02/11 08:26:10;;;;;;;6.53;4.70;;;;;;;2.12;100.00;99315.19;5093292;28;20221;-77
2022/02/11 08:28:36;;;;;;;5.33;4.20;;;;;;;2.13;100.00;99334.28;5093701;28;20553;-77
2022/02/11 08:31:03;;;;;;;5.80;4.50;;;;;;;2.09;100.00;99336.09;5089872;28;20731;-78
2022/02/11 08:33:30;;;;;;;6.47;4.27;;;;;;;2.08;100.00;99334.38;5091394;28;20218;-78
2022/02/11 09:10:38;;;;;;;7.17;4.00;;;;;;;2.71;100.00;99388.06;5106939;27;20414;-70
2022/02/11 09:13:06;;;;;;;6.90;3.90;;;;;;;2.78;100.00;99397.50;5108399;28;20219;-67
2022/02/11 09:15:32;;;;;;;6.40;3.60;;;;;;;2.82;100.00;99404.38;5108863;28;20918;-67
2022/02/11 09:17:59;;;;;;;5.60;3.40;;;;;;;2.84;100.00;99415.66;5107470;28;20224;-67
2022/02/11 09:20:26;;;;;;;4.47;3.50;;;;;;;2.96;100.00;99412.81;5093702;28;20247;-68
2022/02/11 09:22:53;;;;;;;5.43;3.70;;;;;;;2.99;100.00;99411.91;5096776;28;20204;-69
2022/02/11 09:25:20;;;;;;;4.77;3.60;;;;;;;3.01;100.00;99418.78;5107977;28;20215;-69
2022/02/11 09:27:49;;;;;;;6.80;3.67;;;;;;;3.05;100.00;99417.03;5108624;28;20214;-68
2022/02/11 09:30:17;;;;;;;7.33;3.57;;;;;;;3.08;100.00;99422.16;5109164;28;20331;-69
2022/02/11 09:32:45;;;;;;;5.30;3.13;;;;;;;3.16;100.00;99415.91;5098900;28;20682;-70
2022/02/11 09:35:12;;;;;;;9.00;3.87;;;;;;;3.18;100.00;99427.19;5108916;28;20687;-70
2022/02/11 09:37:40;;;;;;;6.10;3.30;;;;;;;3.29;100.00;99427.84;5109126;28;20224;-71
2022/02/11 09:40:09;;;;;;;11.17;3.50;;;;;;;3.36;100.00;99437.25;5108792;28;20216;-71
2022/02/11 09:42:36;;;;;;;4.23;3.33;;;;;;;3.41;100.00;99422.38;5099047;28;20209;-70
2022/02/11 09:45:06;;;;;;;5.40;3.40;;;;;;;3.51;100.00;99431.75;5109020;28;20266;-72
2022/02/11 09:47:33;;;;;;;4.87;2.80;;;;;;;3.57;100.00;99434.22;5109010;28;20245;-70
2022/02/11 09:49:59;;;;;;;5.07;3.10;;;;;;;3.65;100.00;99436.66;5103979;28;20611;-71
2022/02/11 09:52:27;;;;;;;6.13;3.03;;;;;;;3.75;100.00;99441.69;5108982;28;20219;-70
2022/02/11 09:55:31;;;;;;;6.13;3.00;;;;;;;3.84;99.67;99438.88;5109134;28;20280;-71
2022/02/11 09:57:41;;;;;;;4.03;2.77;;;;;;;3.93;99.09;99433.44;5107030;28;20679;-68
2022/02/11 10:00:12;;;;;;;5.13;3.00;;;;;;;3.97;98.94;99444.69;5108595;28;20227;-69
2022/02/11 10:02:49;;;;;;;6.90;2.57;;;;;;;4.05;97.50;99438.41;5108760;28;20580;-71
2022/02/11 10:05:20;;;;;;;4.97;2.23;;;;;;;4.02;98.24;99432.34;5108424;28;20220;-70
2022/02/11 10:07:47;;;;;;;2.90;2.50;;;;;;;4.03;95.99;99440.16;5106172;28;20219;-69
2022/02/11 10:10:17;;;;;;;4.63;2.80;;;;;;;4.07;95.54;99447.06;5126319;28;20260;-69
2022/02/11 10:12:43;;;;;;;4.30;2.67;;;;;;;4.22;95.70;99451.94;5128939;28;20224;-69
2022/02/11 10:15:19;;;;;;;5.13;2.43;;;;;;;4.40;99.64;99456.75;5128216;28;20210;-70
2022/02/11 10:17:45;;;;;;;3.87;2.33;;;;;;;4.51;95.22;99467.81;5124525;28;20666;-69
2022/02/11 10:20:12;;;;;;;6.73;2.67;;;;;;;4.62;94.73;99472.78;5124033;28;20227;-69
2022/02/11 10:22:39;;;;;;;5.30;2.70;;;;;;;4.71;91.46;99472.59;5114350;28;20214;-70
2022/02/11 10:25:06;;;;;;;6.33;3.00;;;;;;;4.81;90.90;99471.44;5113093;28;20214;-70
2022/02/11 10:27:34;;;;;;;5.33;2.40;;;;;;;4.91;90.20;99476.44;5098199;28;20214;-70
2022/02/11 10:30:04;;;;;;;4.03;2.33;;;;;;;5.00;85.95;99476.19;5114048;28;20237;-70
2022/02/11 10:32:44;;;;;;;3.33;2.30;;;;;;;4.97;87.11;99478.88;5113339;28;20214;-70
2022/02/11 10:35:14;;;;;;;3.43;2.20;;;;;;;4.94;87.09;99481.56;5112935;28;20216;-70
2022/02/11 10:38:05;;;;;;;5.97;2.87;;;;;;;4.91;87.72;99484.28;5113457;28;20214;-69
2022/02/11 10:40:34;;;;;;;6.67;2.30;;;;;;;4.94;87.74;99486.81;5104145;28;20264;-69
2022/02/11 10:43:01;;;;;;;5.47;3.00;;;;;;;4.99;88.59;99503.28;5112323;28;20206;-69
2022/02/11 10:45:31;;;;;;;5.00;2.63;;;;;;;5.07;87.66;99500.47;5113759;28;20437;-69
2022/02/11 10:48:17;;;;;;;5.73;2.90;;;;;;;5.16;84.11;99498.47;5113194;28;20236;-69
2022/02/11 10:50:48;;;;;;;3.53;2.70;;;;;;;5.27;84.37;99500.81;5113348;28;20237;-68
2022/02/11 10:53:26;;;;;;;4.83;3.10;;;;;;;5.39;85.52;99496.13;5112850;28;20210;-70
2022/02/11 10:55:53;;;;;;;5.73;2.50;;;;;;;5.51;85.90;99495.75;5112907;28;20213;-69
2022/02/11 10:58:20;;;;;;;6.80;2.77;;;;;;;5.58;83.94;99492.09;5113064;28;20229;-69
2022/02/11 11:00:47;;;;;;;6.23;2.80;;;;;;;5.57;83.87;99494.72;5113433;28;20592;-70
2022/02/11 11:03:15;;;;;;;4.37;2.63;;;;;;;5.47;83.62;99493.25;5112839;28;20221;-68
2022/02/11 11:05:44;;;;;;;7.27;3.27;;;;;;;5.52;83.69;99492.25;5113338;28;20225;-68
2022/02/11 11:08:12;;;;;;;5.70;2.77;;;;;;;5.40;83.46;99492.59;5113154;28;20214;-70
2022/02/11 11:10:42;;;;;;;4.03;2.60;;;;;;;5.24;84.08;99487.75;5111005;28;20241;-69
2022/02/11 11:13:11;;;;;;;3.60;2.70;;;;;;;5.16;83.64;99493.22;5113813;28;20634;-71
2022/02/11 11:15:38;;;;;;;5.77;3.13;;;;;;;5.26;86.97;99494.69;5114069;28;20212;-69
2022/02/11 11:18:07;;;;;;;5.23;3.00;;;;;;;5.52;84.76;99494.00;5113651;28;20225;-70
2022/02/11 11:20:35;;;;;;;5.10;3.13;;;;;;;5.91;83.07;99488.50;5113961;28;20626;-69
2022/02/11 11:23:10;;;;;;;7.20;2.93;;;;;;;6.26;82.53;99490.97;5113994;28;20214;-69
2022/02/11 11:26:01;;;;;;;6.97;2.23;;;;;;;6.34;77.62;99488.94;5113712;28;20671;-69
2022/02/11 11:28:42;;;;;;;2.73;2.20;;;;;;;6.32;80.63;99506.53;5111402;28;20757;-70
2022/02/11 11:31:11;;;;;;;5.37;2.53;;;;;;;6.04;76.25;99508.25;5113646;28;20287;-71
2022/02/11 11:33:37;;;;;;;4.20;2.50;;;;;;;5.93;75.12;99520.81;5112702;28;20216;-72
2022/02/11 11:36:15;;;;;;;4.70;2.53;;;;;;;5.71;75.48;99513.56;5113627;28;20233;-70
2022/02/11 11:38:47;;;;;;;5.93;2.47;;;;;;;5.59;78.23;99524.38;5102096;28;20701;-70
2022/02/11 11:41:20;;;;;;;5.33;2.70;;;;;;;5.68;79.79;99514.50;5113505;28;20213;-70
2022/02/11 11:43:50;;;;;;;8.10;2.70;;;;;;;5.89;77.78;99529.69;5113265;28;20210;-70
2022/02/11 11:46:31;;;;;;;3.00;2.20;;;;;;;6.21;78.55;99529.59;5113186;28;20209;-69
2022/02/11 11:49:00;;;;;;;5.35;2.45;;;;;;;6.24;76.37;99516.38;5112994;28;20211;-70
2022/02/11 11:51:29;;;;;;;6.43;2.37;;;;;;;6.34;77.35;99515.19;5113283;28;20210;-70
2022/02/11 11:54:22;;;;;;;3.80;2.40;;;;;;;6.36;75.55;99518.63;5113222;28;21469;-70
2022/02/11 11:56:50;;;;;;;4.57;2.30;;;;;;;6.41;77.45;99514.09;5113364;28;20253;-68
2022/02/11 11:59:18;;;;;;;5.13;2.50;;;;;;;6.43;76.03;99514.06;5113229;28;20212;-71
2022/02/11 12:01:56;;;;;;;4.47;2.40;;;;;;;6.31;73.98;99515.31;5112791;28;20686;-70
2022/02/11 12:04:24;;;;;;;3.33;2.30;;;;;;;6.30;74.78;99503.06;5111185;28;20430;-68
2022/02/11 12:06:54;;;;;;;5.87;2.20;;;;;;;6.37;76.04;99512.50;5113032;28;20218;-70
2022/02/11 12:09:22;;;;;;;4.20;2.00;;;;;;;6.45;76.84;99510.47;5112849;28;20258;-69
2022/02/11 12:11:52;;;;;;;4.40;2.27;;;;;;;6.42;76.30;99510.56;5113038;28;20291;-69
2022/02/11 12:14:19;;;;;;;5.10;2.20;;;;;;;6.44;75.60;99507.91;5112611;28;20496;-69
2022/02/11 12:16:46;;;;;;;4.93;2.63;;;;;;;6.54;74.51;99511.97;5112490;28;20221;-70
2022/02/11 12:19:13;;;;;;;5.43;2.00;;;;;;;6.59;71.33;99513.53;5112770;28;20590;-70
2022/02/11 12:21:39;;;;;;;5.10;1.90;;;;;;;6.56;71.73;99508.41;5112828;28;20209;-69
2022/02/11 12:29:37;;;;;;;3.50;2.47;;;;;;;6.73;71.95;99516.56;5111752;28;20657;-70
2022/02/11 12:32:04;;;;;;;3.23;2.23;;;;;;;6.63;72.06;99520.41;5110923;28;20214;-69
2022/02/11 12:34:31;;;;;;;5.07;2.30;;;;;;;6.61;71.96;99510.88;5112570;28;20217;-69
2022/02/11 12:37:09;;;;;;;4.10;2.20;;;;;;;6.53;72.24;99521.59;5098988;28;20214;-69
2022/02/11 12:39:37;;;;;;;4.30;2.23;;;;;;;6.52;73.67;99522.50;5108524;28;20283;-69
2022/02/11 12:42:04;;;;;;;3.30;2.10;;;;;;;6.42;72.46;99515.81;5096301;28;20683;-70
2022/02/11 12:44:31;;;;;;;4.43;2.27;;;;;;;6.44;74.06;99523.66;5097605;28;20237;-70
2022/02/11 12:47:00;;;;;;;6.37;2.40;;;;;;;6.58;74.07;99516.19;5102095;28;20308;-70
2022/02/11 12:49:28;;;;;;;4.17;2.17;;;;;;;6.67;74.84;99516.81;5098014;28;20222;-69
2022/02/11 12:51:57;;;;;;;5.30;2.20;;;;;;;6.76;74.66;99510.34;5097901;28;20301;-69
2022/02/11 12:54:24;;;;;;;3.67;2.10;;;;;;;6.78;72.05;99514.66;5099811;28;20211;-70
2022/02/11 12:57:02;;;;;;;5.00;2.17;;;;;;;6.85;72.55;99510.91;5100722;28;20691;-70
2022/02/11 12:59:29;;;;;;;3.67;2.00;;;;;;;6.64;73.85;99510.75;5112005;28;20755;-70
2022/02/11 13:01:55;;;;;;;2.63;2.10;;;;;;;6.51;74.62;99507.66;5112368;28;20226;-70
2022/02/11 13:04:22;;;;;;;3.23;2.20;;;;;;;6.48;72.48;99510.38;5112047;28;20219;-70
2022/02/11 13:06:49;;;;;;;4.83;2.17;;;;;;;6.44;74.13;99514.03;5112129;28;20213;-70
2022/02/11 13:09:18;;;;;;;3.83;2.00;;;;;;;6.23;76.62;99504.16;5111905;28;20236;-70
2022/02/11 13:11:45;;;;;;;3.40;2.23;;;;;;;5.96;77.29;99512.88;5112113;28;20269;-70
2022/02/11 13:14:13;;;;;;;3.53;2.30;;;;;;;5.65;75.57;99508.47;5112061;28;20211;-70
2022/02/11 13:16:40;;;;;;;3.33;2.13;;;;;;;5.51;76.32;99503.63;5112023;28;20218;-70
2022/02/11 13:19:10;;;;;;;3.17;2.10;;;;;;;5.51;76.55;99508.84;5112300;28;20724;-69
2022/02/11 13:21:37;;;;;;;4.73;2.60;;;;;;;5.59;77.24;99514.78;5112049;28;20225;-69
2022/02/11 13:24:04;;;;;;;4.80;2.30;;;;;;;5.67;75.84;99499.69;5110053;28;20206;-70
2022/02/11 13:26:31;;;;;;;6.03;2.40;;;;;;;5.74;75.59;99498.59;5112043;28;20214;-71
2022/02/11 13:28:58;;;;;;;4.07;2.30;;;;;;;5.84;77.92;99505.34;5112057;28;20210;-71
2022/02/11 13:31:26;;;;;;;5.40;2.27;;;;;;;6.08;78.43;99499.38;5112198;28;20237;-71
2022/02/11 13:34:03;;;;;;;3.93;2.50;;;;;;;6.23;77.39;99498.91;5111583;28;20267;-71
2022/02/11 13:36:30;;;;;;;3.47;2.00;;;;;;;6.21;77.03;99500.72;5111938;28;20254;-71
2022/02/11 13:38:59;;;;;;;4.80;2.30;;;;;;;6.20;78.46;99509.53;5111916;28;20214;-71
2022/02/11 13:41:29;;;;;;;3.93;2.50;;;;;;;6.24;77.56;99505.88;5111910;28;20210;-71
2022/02/11 13:43:57;;;;;;;3.67;2.50;;;;;;;6.45;76.93;99504.38;5111578;28;20682;-71
2022/02/11 13:46:27;;;;;;;4.33;2.10;;;;;;;6.41;75.00;99513.25;5100542;28;20230;-71
2022/02/11 13:48:54;;;;;;;4.70;2.40;;;;;;;6.33;77.08;99510.88;5111531;28;20221;-72
2022/02/11 13:51:21;;;;;;;3.77;2.40;;;;;;;6.16;76.86;99513.13;5109708;28;20241;-71
2022/02/11 13:53:52;;;;;;;6.00;2.33;;;;;;;6.02;78.25;99523.19;5111812;28;20586;-71
2022/02/11 13:56:22;;;;;;;3.13;1.97;;;;;;;5.97;76.44;99517.19;5103187;28;20225;-71
2022/02/11 13:59:04;;;;;;;5.50;1.87;;;;;;;5.96;73.51;99510.25;5115734;28;20237;-71
2022/02/11 14:01:33;;;;;;;3.83;2.40;;;;;;;5.87;77.14;99523.59;5115711;28;20236;-71
2022/02/11 14:04:01;;;;;;;3.67;2.33;;;;;;;5.82;76.70;99527.28;5115436;28;20214;-71
2022/02/11 14:06:35;;;;;;;2.77;2.07;;;;;;;5.75;76.68;99525.69;5115456;28;20215;-73
2022/02/11 14:09:02;;;;;;;3.23;1.77;;;;;;;6.17;74.79;99527.97;5115295;28;20319;-71
2022/02/11 14:11:35;;;;;;;2.70;1.63;;;;;;;6.08;68.93;99530.88;5107280;28;20246;-71
2022/02/11 14:14:09;;;;;;;2.60;1.73;;;;;;;6.06;73.26;99537.06;5104657;28;20246;-71
2022/02/11 14:16:37;;;;;;;3.67;1.93;;;;;;;6.05;73.04;99536.19;5114784;28;20286;-70
2022/02/11 14:19:03;;;;;;;3.13;1.93;;;;;;;5.98;73.93;99532.03;5114359;28;20214;-71
2022/02/11 14:21:30;;;;;;;3.37;2.07;;;;;;;6.01;74.32;99533.72;5114783;28;20214;-71
2022/02/11 14:23:56;;;;;;;3.20;1.73;;;;;;;6.14;72.15;99541.19;5115076;28;20214;-71
2022/02/11 14:26:23;;;;;;;3.53;2.27;;;;;;;6.34;72.75;99533.59;5114761;28;20214;-71
2022/02/11 14:28:49;;;;;;;5.07;2.37;;;;;;;6.49;71.11;99542.75;5114325;28;20290;-72
2022/02/11 14:31:16;;;;;;;4.50;2.03;;;;;;;6.47;71.10;99545.44;5114867;28;20240;-71
2022/02/11 14:33:44;;;;;;;3.27;2.20;;;;;;;6.48;71.07;99551.56;5114839;28;20214;-71
2022/02/11 14:36:11;;;;;;;3.57;2.23;;;;;;;6.51;70.48;99562.81;5114472;28;20218;-71
2022/02/11 14:38:37;;;;;;;3.17;2.30;;;;;;;6.60;70.44;99562.53;5114509;28;20245;-72
2022/02/11 14:43:48;;;;;;;3.17;1.70;;;;;;;6.72;67.14;99566.56;5113153;28;20584;-72
2022/02/11 14:46:14;;;;;;;2.10;1.90;;;;;;;6.72;67.47;99564.78;5114317;28;20210;-72
2022/02/11 14:48:41;;;;;;;3.93;1.90;;;;;;;6.57;65.86;99567.91;5114205;28;20679;-72
2022/02/11 14:51:09;;;;;;;3.13;1.70;;;;;;;6.48;69.35;99562.06;5114731;28;20234;-71
2022/02/11 14:53:36;;;;;;;2.80;1.70;;;;;;;6.38;70.58;99571.97;5114279;28;20732;-71
2022/02/11 14:56:04;;;;;;;3.07;2.00;;;;;;;6.27;70.24;99573.19;5114273;28;20241;-71
2022/02/11 14:58:31;;;;;;;2.10;1.80;;;;;;;6.17;69.98;99572.59;5114387;28;20313;-72
2022/02/11 15:00:57;;;;;;;2.67;1.60;;;;;;;6.06;68.77;99574.69;5114483;28;20215;-72
2022/02/11 15:03:24;;;;;;;4.63;1.87;;;;;;;6.01;68.04;99576.59;5114327;28;20221;-72
2022/02/11 15:05:50;;;;;;;3.00;1.80;;;;;;;5.98;68.36;99578.44;5113922;28;20306;-72
2022/02/11 15:08:18;;;;;;;4.20;1.77;;;;;;;5.93;68.48;99586.41;5113439;28;20209;-73
2022/02/11 15:10:45;;;;;;;4.97;2.10;;;;;;;6.05;69.21;99583.44;5113566;28;20243;-73
2022/02/11 15:13:11;;;;;;;1.53;1.43;;;;;;;6.06;68.19;99590.44;5112548;28;20206;-72
2022/02/11 15:15:39;;;;;;;4.03;1.90;;;;;;;5.89;67.22;99590.03;5114007;28;20589;-72
2022/02/11 15:18:06;;;;;;;4.10;1.87;;;;;;;5.81;68.89;99585.91;5113666;28;20720;-72
2022/02/11 15:20:34;;;;;;;5.40;2.10;;;;;;;5.79;70.59;99596.41;5113589;28;20224;-72
2022/02/11 15:23:01;;;;;;;3.57;2.00;;;;;;;5.81;71.06;99593.78;5113611;28;20651;-74
2022/02/11 15:25:29;;;;;;;5.03;2.93;;;;;;;5.84;70.54;99586.69;5108796;28;20706;-71
2022/02/11 15:27:55;;;;;;;5.47;2.80;;;;;;;5.86;71.42;99587.50;5112462;28;20218;-71
2022/02/11 15:30:22;;;;;;;5.57;2.90;;;;;;;5.87;69.81;99590.97;5113699;28;20589;-73
2022/02/11 15:32:48;;;;;;;3.50;2.87;;;;;;;5.75;71.96;99592.13;5113489;28;20691;-73
2022/02/11 15:35:15;;;;;;;3.63;1.90;;;;;;;5.65;72.15;99595.91;5113834;28;20219;-73
2022/02/11 15:37:42;;;;;;;5.10;2.20;;;;;;;5.61;72.79;99596.88;5112661;28;20297;-73